Time;durP1;ratioP1;P1;durP2;ratioP2;P2;SDS_P1;SDS_P2;PMS_P1;PMS_P2;Temp;Humidity;BMP_temperature;BMP_pressure;BME280_temperature;BME280_humidity;BME280_pressure;Samples;Min_cycle;Max_cycle;Signal;HPM_P1;HPM_P2
2022/07/12 00:01:18;;;;;;;;;;;14.20;58.60;;;;;;4173311;28;20000;-87
2022/07/12 00:03:39;;;;;;;;;;;14.20;58.70;;;;;;4175280;28;19923;-87
2022/07/12 00:06:00;;;;;;;;;;;14.20;58.80;;;;;;4190910;28;19963;-86
2022/07/12 00:08:21;;;;;;;;;;;14.10;58.70;;;;;;4177733;28;19924;-84
2022/07/12 00:10:42;;;;;;;;;;;14.10;58.80;;;;;;4187596;28;19942;-86
2022/07/12 00:13:04;;;;;;;;;;;14.10;58.90;;;;;;4186714;28;19908;-86
2022/07/12 00:15:24;;;;;;;;;;;14.10;58.80;;;;;;4183452;28;20435;-86
2022/07/12 00:17:45;;;;;;;;;;;14.10;58.90;;;;;;4190280;28;21790;-86
2022/07/12 00:20:07;;;;;;;;;;;14.00;59.00;;;;;;4190811;28;20396;-88
2022/07/12 00:22:28;;;;;;;;;;;14.10;59.20;;;;;;4190081;28;19986;-86
2022/07/12 00:24:49;;;;;;;;;;;14.00;58.70;;;;;;4173084;28;19916;-85
2022/07/12 00:27:10;;;;;;;;;;;14.00;58.40;;;;;;4172743;28;19919;-85
2022/07/12 00:29:30;;;;;;;;;;;14.00;58.30;;;;;;4190419;28;19908;-85
2022/07/12 00:31:51;;;;;;;;;;;14.00;58.80;;;;;;4190008;28;19927;-85
2022/07/12 00:34:12;;;;;;;;;;;14.00;59.50;;;;;;4185041;28;19908;-85
2022/07/12 00:36:33;;;;;;;;;;;14.10;59.90;;;;;;4187151;28;20129;-84
2022/07/12 00:38:55;;;;;;;;;;;14.00;61.20;;;;;;4187934;28;19994;-85
2022/07/12 00:41:16;;;;;;;;;;;14.00;62.00;;;;;;4187031;28;19912;-85
2022/07/12 00:43:37;;;;;;;;;;;14.10;61.30;;;;;;4170767;28;19917;-85
2022/07/12 00:45:58;;;;;;;;;;;14.00;61.40;;;;;;4174061;28;19908;-84
2022/07/12 00:48:19;;;;;;;;;;;14.10;61.80;;;;;;4175764;28;19995;-85
2022/07/12 00:50:40;;;;;;;;;;;14.10;62.10;;;;;;4172716;28;19924;-84
2022/07/12 00:53:02;;;;;;;;;;;14.10;63.00;;;;;;4184531;28;20393;-85
2022/07/12 00:55:23;;;;;;;;;;;14.10;62.90;;;;;;4186975;28;19947;-86
2022/07/12 00:57:44;;;;;;;;;;;14.10;63.10;;;;;;4186143;28;19919;-85
2022/07/12 01:00:09;;;;;;;;;;;14.10;63.00;;;;;;4186345;28;19912;-86
2022/07/12 01:02:30;;;;;;;;;;;14.10;63.30;;;;;;4190631;28;20456;-85
2022/07/12 01:04:51;;;;;;;;;;;14.10;63.60;;;;;;4188625;28;19923;-86
2022/07/12 01:07:12;;;;;;;;;;;14.10;64.70;;;;;;4175146;28;19924;-86
2022/07/12 01:09:33;;;;;;;;;;;14.10;64.50;;;;;;4182324;28;19932;-87
2022/07/12 01:11:54;;;;;;;;;;;14.10;64.70;;;;;;4188371;28;19997;-86
2022/07/12 01:14:15;;;;;;;;;;;14.10;64.80;;;;;;4199386;28;19947;-84
2022/07/12 01:16:37;;;;;;;;;;;14.10;65.00;;;;;;4179703;28;20389;-84
2022/07/12 01:18:58;;;;;;;;;;;14.10;65.60;;;;;;4173772;28;19917;-86
2022/07/12 01:21:21;;;;;;;;;;;14.10;65.80;;;;;;4172830;28;19944;-84
2022/07/12 01:23:42;;;;;;;;;;;14.10;65.70;;;;;;4174670;28;19913;-84
2022/07/12 01:26:03;;;;;;;;;;;14.20;66.10;;;;;;4170462;28;20551;-84
2022/07/12 01:28:24;;;;;;;;;;;14.10;66.20;;;;;;4174669;28;19927;-86
2022/07/12 01:30:46;;;;;;;;;;;14.10;66.50;;;;;;4187559;28;19917;-84
2022/07/12 01:33:07;;;;;;;;;;;14.10;66.40;;;;;;4171195;28;19913;-86
2022/07/12 01:35:28;;;;;;;;;;;14.20;66.20;;;;;;4186712;28;20934;-84
2022/07/12 01:37:49;;;;;;;;;;;14.20;66.40;;;;;;4172010;28;19917;-84
2022/07/12 01:40:14;;;;;;;;;;;14.10;66.80;;;;;;4168506;28;19915;-84
2022/07/12 01:42:35;;;;;;;;;;;14.10;66.80;;;;;;4172684;28;19909;-85
2022/07/12 01:44:56;;;;;;;;;;;14.20;67.10;;;;;;4188796;28;19920;-84
2022/07/12 01:47:17;;;;;;;;;;;14.20;67.80;;;;;;4171763;28;19912;-83
2022/07/12 01:49:38;;;;;;;;;;;14.20;67.30;;;;;;4173141;28;20287;-85
2022/07/12 01:51:59;;;;;;;;;;;14.20;67.80;;;;;;4175239;28;19958;-84
2022/07/12 01:54:20;;;;;;;;;;;14.20;67.40;;;;;;4188629;28;19961;-85
2022/07/12 01:56:41;;;;;;;;;;;14.30;67.80;;;;;;4185808;28;19919;-84
2022/07/12 01:59:02;;;;;;;;;;;14.20;67.60;;;;;;4185043;28;19927;-86
2022/07/12 02:01:23;;;;;;;;;;;14.20;67.50;;;;;;4169086;28;19913;-84
2022/07/12 02:03:44;;;;;;;;;;;14.30;67.40;;;;;;4181894;28;19912;-85
2022/07/12 02:06:05;;;;;;;;;;;14.30;67.50;;;;;;4173662;28;19909;-84
2022/07/12 02:08:26;;;;;;;;;;;14.30;67.90;;;;;;4187492;28;19923;-85
2022/07/12 02:10:46;;;;;;;;;;;14.30;68.00;;;;;;4173558;28;19925;-85
2022/07/12 02:13:07;;;;;;;;;;;14.30;67.80;;;;;;4182018;28;20033;-84
2022/07/12 02:15:28;;;;;;;;;;;14.40;67.90;;;;;;4185691;27;20333;-86
2022/07/12 02:17:49;;;;;;;;;;;14.40;67.80;;;;;;4188265;28;19943;-87
2022/07/12 02:20:12;;;;;;;;;;;14.50;68.10;;;;;;4171546;28;19913;-83
2022/07/12 02:22:34;;;;;;;;;;;14.40;68.30;;;;;;4180259;28;19920;-84
2022/07/12 02:24:55;;;;;;;;;;;14.40;68.10;;;;;;4169034;28;19919;-84
2022/07/12 02:27:16;;;;;;;;;;;14.50;68.20;;;;;;4175945;28;20361;-85
2022/07/12 02:29:37;;;;;;;;;;;14.50;68.30;;;;;;4176737;28;20384;-86
2022/07/12 02:31:58;;;;;;;;;;;14.50;68.00;;;;;;4186540;28;20338;-86
2022/07/12 02:34:18;;;;;;;;;;;14.50;68.40;;;;;;4173268;28;20370;-85
2022/07/12 02:36:39;;;;;;;;;;;14.50;68.80;;;;;;4188195;28;19930;-85
2022/07/12 02:39:03;;;;;;;;;;;14.60;68.90;;;;;;4175376;28;20476;-85
2022/07/12 02:41:24;;;;;;;;;;;14.60;69.20;;;;;;4187419;28;19908;-84
2022/07/12 02:43:48;;;;;;;;;;;14.60;69.20;;;;;;4170000;28;19951;-84
2022/07/12 02:46:10;;;;;;;;;;;14.60;69.70;;;;;;4189862;28;19946;-85
2022/07/12 02:48:30;;;;;;;;;;;14.60;69.50;;;;;;4171988;28;20647;-86
2022/07/12 02:50:51;;;;;;;;;;;14.60;69.80;;;;;;4186775;28;19919;-85
2022/07/12 02:53:12;;;;;;;;;;;14.60;69.20;;;;;;4172741;28;19909;-84
2022/07/12 02:55:33;;;;;;;;;;;14.60;69.30;;;;;;4172466;28;19988;-87
2022/07/12 02:57:54;;;;;;;;;;;14.60;69.90;;;;;;4165985;28;20349;-84
2022/07/12 03:00:15;;;;;;;;;;;14.60;69.80;;;;;;4190208;28;20711;-84
2022/07/12 03:02:36;;;;;;;;;;;14.60;69.60;;;;;;4171730;28;19916;-84
2022/07/12 03:04:57;;;;;;;;;;;14.70;69.90;;;;;;4175105;28;20323;-85
2022/07/12 03:07:18;;;;;;;;;;;14.60;70.30;;;;;;4185003;28;19959;-85
2022/07/12 03:09:39;;;;;;;;;;;14.60;69.90;;;;;;4183452;28;19919;-85
2022/07/12 03:12:00;;;;;;;;;;;14.70;69.80;;;;;;4168070;28;19921;-85
2022/07/12 03:14:21;;;;;;;;;;;14.70;69.90;;;;;;4190594;28;20351;-85
2022/07/12 03:16:42;;;;;;;;;;;14.60;69.80;;;;;;4169538;28;20408;-86
2022/07/12 03:19:03;;;;;;;;;;;14.70;70.00;;;;;;4172941;28;19908;-84
2022/07/12 03:21:24;;;;;;;;;;;14.70;70.00;;;;;;4187837;28;19923;-85
2022/07/12 03:23:45;;;;;;;;;;;14.70;70.00;;;;;;4175538;28;19909;-87
2022/07/12 03:26:06;;;;;;;;;;;14.70;70.00;;;;;;4184357;28;19946;-84
2022/07/12 03:28:27;;;;;;;;;;;14.70;71.10;;;;;;4183142;28;19909;-86
2022/07/12 03:30:48;;;;;;;;;;;14.70;70.30;;;;;;4186593;28;19920;-85
2022/07/12 03:33:09;;;;;;;;;;;14.70;70.00;;;;;;4169791;28;20326;-86
2022/07/12 03:35:30;;;;;;;;;;;14.70;70.00;;;;;;4185498;28;19909;-85
2022/07/12 03:37:51;;;;;;;;;;;14.80;70.10;;;;;;4184276;28;19965;-85
2022/07/12 03:40:13;;;;;;;;;;;14.80;70.10;;;;;;4186843;28;19913;-84
2022/07/12 03:42:35;;;;;;;;;;;14.80;70.30;;;;;;4171648;28;19917;-85
2022/07/12 03:44:56;;;;;;;;;;;14.80;70.20;;;;;;4173869;28;19924;-85
2022/07/12 03:47:16;;;;;;;;;;;14.80;70.20;;;;;;4171876;28;19917;-84
2022/07/12 03:49:37;;;;;;;;;;;14.80;70.40;;;;;;4186538;28;19916;-85
2022/07/12 03:51:58;;;;;;;;;;;14.90;70.50;;;;;;4186139;28;19965;-87
2022/07/12 03:54:19;;;;;;;;;;;14.80;70.30;;;;;;4175708;28;19908;-84
2022/07/12 03:59:20;;;;;;;;;;;14.90;70.40;;;;;;4185039;28;19916;-85
2022/07/12 04:01:43;;;;;;;;;;;14.90;70.50;;;;;;4173285;28;19920;-85
2022/07/12 04:04:04;;;;;;;;;;;14.90;70.70;;;;;;4187048;28;19908;-85
2022/07/12 04:06:24;;;;;;;;;;;14.90;70.70;;;;;;4170288;28;19917;-84
2022/07/12 04:08:45;;;;;;;;;;;14.90;70.90;;;;;;4174678;28;20062;-86
2022/07/12 04:11:06;;;;;;;;;;;14.90;70.70;;;;;;4184958;28;19920;-85
2022/07/12 04:13:27;;;;;;;;;;;14.90;70.60;;;;;;4187879;28;20406;-85
2022/07/12 04:15:48;;;;;;;;;;;15.00;70.70;;;;;;4173279;28;20341;-84
2022/07/12 04:18:09;;;;;;;;;;;14.90;70.90;;;;;;4174544;28;19909;-85
2022/07/12 04:20:29;;;;;;;;;;;15.00;70.80;;;;;;4172476;28;19983;-85
2022/07/12 04:22:50;;;;;;;;;;;15.00;70.90;;;;;;4184653;28;19908;-85
2022/07/12 04:25:11;;;;;;;;;;;15.00;70.80;;;;;;4168166;28;19917;-85
2022/07/12 04:27:32;;;;;;;;;;;15.00;71.00;;;;;;4189842;28;19913;-86
2022/07/12 04:29:53;;;;;;;;;;;15.00;70.80;;;;;;4176369;28;19924;-83
2022/07/12 04:32:14;;;;;;;;;;;15.00;70.90;;;;;;4188040;28;19995;-85
2022/07/12 04:34:35;;;;;;;;;;;15.00;71.00;;;;;;4177922;28;19917;-85
2022/07/12 04:36:56;;;;;;;;;;;15.00;70.90;;;;;;4189654;28;19920;-86
2022/07/12 04:39:16;;;;;;;;;;;15.10;71.10;;;;;;4175638;28;19919;-84
2022/07/12 04:41:37;;;;;;;;;;;15.10;71.00;;;;;;4189038;28;19908;-85
2022/07/12 04:43:58;;;;;;;;;;;15.10;71.00;;;;;;4182686;28;19923;-86
2022/07/12 04:46:19;;;;;;;;;;;15.10;71.00;;;;;;4196626;28;19908;-84
2022/07/12 04:48:40;;;;;;;;;;;15.10;71.50;;;;;;4181207;28;19984;-84
2022/07/12 04:51:01;;;;;;;;;;;15.10;71.10;;;;;;4192359;28;19920;-84
2022/07/12 04:53:22;;;;;;;;;;;15.10;71.00;;;;;;4176670;28;19932;-85
2022/07/12 04:55:43;;;;;;;;;;;15.10;71.00;;;;;;4177500;28;19916;-85
2022/07/12 04:58:06;;;;;;;;;;;15.10;71.10;;;;;;4189353;28;20366;-84
2022/07/12 05:00:27;;;;;;;;;;;15.20;71.40;;;;;;4187355;28;20003;-85
2022/07/12 05:02:48;;;;;;;;;;;15.20;71.50;;;;;;4174755;28;20356;-85
2022/07/12 05:05:09;;;;;;;;;;;15.20;71.40;;;;;;4184349;28;19909;-85
2022/07/12 05:07:30;;;;;;;;;;;15.20;71.40;;;;;;4186950;28;19908;-85
2022/07/12 05:09:51;;;;;;;;;;;15.20;71.50;;;;;;4191209;28;19959;-83
2022/07/12 05:12:12;;;;;;;;;;;15.30;71.20;;;;;;4173538;28;19917;-84
2022/07/12 05:14:33;;;;;;;;;;;15.30;71.10;;;;;;4169907;28;19909;-85
2022/07/12 05:16:54;;;;;;;;;;;15.30;71.20;;;;;;4173065;28;19912;-85
2022/07/12 05:19:15;;;;;;;;;;;15.30;71.30;;;;;;4184004;28;19923;-86
2022/07/12 05:21:36;;;;;;;;;;;15.30;71.40;;;;;;4187235;28;20102;-85
2022/07/12 05:23:57;;;;;;;;;;;15.30;71.40;;;;;;4187752;28;19908;-84
2022/07/12 05:26:18;;;;;;;;;;;15.40;71.30;;;;;;4188518;28;20003;-85
2022/07/12 05:28:39;;;;;;;;;;;15.40;71.40;;;;;;4201440;28;19919;-85
2022/07/12 05:31:00;;;;;;;;;;;15.40;71.40;;;;;;4196452;28;19901;-88
2022/07/12 05:33:21;;;;;;;;;;;15.50;71.40;;;;;;4186343;28;19908;-87
2022/07/12 05:35:42;;;;;;;;;;;15.50;71.10;;;;;;4198809;28;19917;-88
2022/07/12 05:38:03;;;;;;;;;;;15.50;71.10;;;;;;4192751;28;19920;-85
2022/07/12 05:40:24;;;;;;;;;;;15.60;71.20;;;;;;4191569;28;19917;-84
2022/07/12 05:42:45;;;;;;;;;;;15.60;71.30;;;;;;4189555;28;19912;-87
2022/07/12 05:45:06;;;;;;;;;;;15.60;71.40;;;;;;4172134;28;19909;-85
2022/07/12 05:47:28;;;;;;;;;;;15.60;71.20;;;;;;4177402;28;19912;-87
2022/07/12 05:49:49;;;;;;;;;;;15.70;71.20;;;;;;4178648;28;19923;-86
2022/07/12 05:54:49;;;;;;;;;;;15.70;70.80;;;;;;4185206;28;20332;-87
2022/07/12 05:57:11;;;;;;;;;;;15.70;70.80;;;;;;4183183;28;19995;-86
2022/07/12 05:59:34;;;;;;;;;;;15.70;70.60;;;;;;4166575;28;20311;-88
2022/07/12 06:01:54;;;;;;;;;;;15.70;70.70;;;;;;4182062;28;19916;-86
2022/07/12 06:04:15;;;;;;;;;;;15.80;70.70;;;;;;4179861;28;20503;-86
2022/07/12 06:06:36;;;;;;;;;;;15.80;70.70;;;;;;4180156;28;19916;-86
2022/07/12 06:08:57;;;;;;;;;;;15.80;70.80;;;;;;4181434;28;19916;-86
2022/07/12 06:11:18;;;;;;;;;;;15.80;70.60;;;;;;4181304;28;19966;-86
2022/07/12 06:13:39;;;;;;;;;;;15.80;70.80;;;;;;4167857;28;19920;-85
2022/07/12 06:16:00;;;;;;;;;;;15.90;70.70;;;;;;4168627;28;19909;-85
2022/07/12 06:18:21;;;;;;;;;;;15.90;70.70;;;;;;4164500;28;19909;-86
2022/07/12 06:20:42;;;;;;;;;;;15.90;70.60;;;;;;4169979;28;19909;-86
2022/07/12 06:23:03;;;;;;;;;;;16.00;70.70;;;;;;4168353;28;19995;-87
2022/07/12 06:25:24;;;;;;;;;;;16.00;70.70;;;;;;4181537;27;19916;-86
2022/07/12 06:27:46;;;;;;;;;;;16.10;70.80;;;;;;4167421;28;19973;-89
2022/07/12 06:30:07;;;;;;;;;;;16.10;70.80;;;;;;4167351;28;20390;-87
2022/07/12 06:32:28;;;;;;;;;;;16.10;71.00;;;;;;4177461;28;19936;-86
2022/07/12 06:34:49;;;;;;;;;;;16.20;71.30;;;;;;4167140;28;19917;-85
2022/07/12 06:37:10;;;;;;;;;;;16.20;71.30;;;;;;4164932;28;19925;-85
2022/07/12 06:39:31;;;;;;;;;;;16.30;71.30;;;;;;4179584;28;19916;-87
2022/07/12 06:41:52;;;;;;;;;;;16.30;71.30;;;;;;4169608;28;19913;-84
2022/07/12 06:44:13;;;;;;;;;;;16.40;71.20;;;;;;4167135;28;19939;-86
2022/07/12 06:46:34;;;;;;;;;;;16.40;71.20;;;;;;4167363;28;19979;-85
2022/07/12 06:48:54;;;;;;;;;;;16.50;71.00;;;;;;4166271;28;19920;-86
2022/07/12 06:51:15;;;;;;;;;;;16.60;71.00;;;;;;4169360;28;19979;-86
2022/07/12 06:53:36;;;;;;;;;;;16.60;70.90;;;;;;4168408;28;19952;-87
2022/07/12 06:55:57;;;;;;;;;;;16.70;70.70;;;;;;4179796;28;19919;-85
2022/07/12 06:58:18;;;;;;;;;;;16.80;70.80;;;;;;4182727;28;19908;-86
2022/07/12 07:00:39;;;;;;;;;;;16.90;71.00;;;;;;4166527;28;19917;-86
2022/07/12 07:03:00;;;;;;;;;;;16.90;70.60;;;;;;4172009;28;19952;-87
2022/07/12 07:05:21;;;;;;;;;;;17.00;70.70;;;;;;4182239;28;19916;-86
2022/07/12 07:07:42;;;;;;;;;;;17.00;71.40;;;;;;4168798;28;21592;-86
2022/07/12 07:10:03;;;;;;;;;;;17.10;71.30;;;;;;4171461;28;20451;-86
2022/07/12 07:12:24;;;;;;;;;;;17.20;71.00;;;;;;4180488;28;20258;-87
2022/07/12 07:14:45;;;;;;;;;;;17.30;70.50;;;;;;4166483;28;20433;-86
2022/07/12 07:17:06;;;;;;;;;;;17.30;70.10;;;;;;4165270;28;20015;-89
2022/07/12 07:19:26;;;;;;;;;;;17.40;70.20;;;;;;4184616;28;19912;-87
2022/07/12 07:21:47;;;;;;;;;;;17.50;70.70;;;;;;4163392;28;19935;-85
2022/07/12 07:24:09;;;;;;;;;;;17.60;70.90;;;;;;4179915;28;20325;-86
2022/07/12 07:26:30;;;;;;;;;;;17.80;71.00;;;;;;4179358;28;20308;-88
2022/07/12 07:31:33;;;;;;;;;;;18.00;70.60;;;;;;4185370;28;20401;-89
2022/07/12 07:33:54;;;;;;;;;;;18.10;70.10;;;;;;4172358;28;20470;-86
2022/07/12 07:36:15;;;;;;;;;;;18.30;70.10;;;;;;4187211;28;19913;-87
2022/07/12 07:38:35;;;;;;;;;;;18.30;70.10;;;;;;4175807;28;19909;-87
2022/07/12 07:40:56;;;;;;;;;;;18.50;69.80;;;;;;4172900;28;20532;-86
2022/07/12 07:43:17;;;;;;;;;;;18.60;69.20;;;;;;4181419;28;19932;-87
2022/07/12 07:45:38;;;;;;;;;;;18.70;69.10;;;;;;4168111;28;20466;-86
2022/07/12 07:47:59;;;;;;;;;;;18.80;68.20;;;;;;4171572;28;20385;-86
2022/07/12 07:50:20;;;;;;;;;;;18.90;67.60;;;;;;4171289;28;19959;-86
2022/07/12 07:52:41;;;;;;;;;;;19.00;66.80;;;;;;4182642;28;19915;-87
2022/07/12 07:55:02;;;;;;;;;;;19.00;66.90;;;;;;4183668;28;19916;-87
2022/07/12 07:57:22;;;;;;;;;;;19.10;67.10;;;;;;4182429;28;19993;-86
2022/07/12 07:59:43;;;;;;;;;;;19.20;67.00;;;;;;4167487;28;20007;-87
2022/07/12 08:02:04;;;;;;;;;;;19.30;66.60;;;;;;4169066;28;20417;-86
2022/07/12 08:04:25;;;;;;;;;;;19.40;66.20;;;;;;4190490;28;19916;-86
2022/07/12 08:06:47;;;;;;;;;;;19.50;65.20;;;;;;4190597;28;19928;-89
2022/07/12 08:09:08;;;;;;;;;;;19.50;65.40;;;;;;4172898;28;19945;-87
2022/07/12 08:11:29;;;;;;;;;;;19.60;65.30;;;;;;4183980;28;19912;-87
2022/07/12 08:13:50;;;;;;;;;;;19.60;65.00;;;;;;4170965;28;20436;-86
2022/07/12 08:16:11;;;;;;;;;;;19.60;64.50;;;;;;4187228;28;19916;-87
2022/07/12 08:18:31;;;;;;;;;;;19.70;64.30;;;;;;4179527;28;20413;-86
2022/07/12 08:20:52;;;;;;;;;;;19.70;63.60;;;;;;4168114;28;20398;-86
2022/07/12 08:23:13;;;;;;;;;;;19.70;63.90;;;;;;4182574;28;20294;-87
2022/07/12 08:25:34;;;;;;;;;;;19.70;63.80;;;;;;4167590;28;19916;-86
2022/07/12 08:27:55;;;;;;;;;;;19.70;63.40;;;;;;4169912;28;19912;-90
2022/07/12 08:30:16;;;;;;;;;;;19.80;63.90;;;;;;4168280;28;19923;-87
2022/07/12 08:32:42;;;;;;;;;;;19.80;63.80;;;;;;4183855;28;20540;-87
2022/07/12 08:35:03;;;;;;;;;;;19.80;64.30;;;;;;4181624;28;20313;-87
2022/07/12 08:37:25;;;;;;;;;;;19.90;63.20;;;;;;4184583;28;19964;-87
2022/07/12 08:39:45;;;;;;;;;;;20.00;63.20;;;;;;4188146;28;20430;-86
2022/07/12 08:42:07;;;;;;;;;;;20.00;63.40;;;;;;4169966;28;19923;-86
2022/07/12 08:44:28;;;;;;;;;;;20.00;62.80;;;;;;4175959;28;20012;-86
2022/07/12 08:46:49;;;;;;;;;;;20.10;62.30;;;;;;4181755;28;19919;-86
2022/07/12 08:49:10;;;;;;;;;;;20.20;62.40;;;;;;4182857;28;19927;-88
2022/07/12 08:51:31;;;;;;;;;;;20.20;62.80;;;;;;4180618;28;20386;-87
2022/07/12 08:54:12;;;;;;;;;;;20.30;62.40;;;;;;4182944;27;20172;-87
2022/07/12 08:56:34;;;;;;;;;;;20.30;62.30;;;;;;4182505;28;19915;-87
2022/07/12 08:59:17;;;;;;;;;;;20.40;63.10;;;;;;4183628;28;19951;-89
2022/07/12 09:01:38;;;;;;;;;;;20.50;62.00;;;;;;4184461;28;20381;-87
2022/07/12 09:04:12;;;;;;;;;;;20.60;61.90;;;;;;4188944;28;19909;-88
2022/07/12 09:06:33;;;;;;;;;;;20.60;61.90;;;;;;4188830;28;19920;-87
2022/07/12 09:08:54;;;;;;;;;;;20.70;60.70;;;;;;4164124;28;20302;-87
2022/07/12 09:11:15;;;;;;;;;;;20.80;61.60;;;;;;4172169;28;19975;-86
2022/07/12 09:13:50;;;;;;;;;;;20.90;61.50;;;;;;4180112;28;19915;-87
2022/07/12 09:16:18;;;;;;;;;;;21.00;61.40;;;;;;4183652;28;19912;-87
2022/07/12 09:18:39;;;;;;;;;;;21.10;59.90;;;;;;4188230;28;19912;-87
2022/07/12 09:21:00;;;;;;;;;;;21.20;60.50;;;;;;4179226;28;19942;-88
2022/07/12 09:23:21;;;;;;;;;;;21.20;60.10;;;;;;4182622;28;19915;-86
2022/07/12 09:25:46;;;;;;;;;;;21.30;59.20;;;;;;4190073;28;19950;-85
2022/07/12 09:28:07;;;;;;;;;;;21.40;59.40;;;;;;4188471;28;19913;-87
2022/07/12 09:30:29;;;;;;;;;;;21.40;58.30;;;;;;4185435;28;20263;-87
2022/07/12 09:38:19;;;;;;;;;;;21.60;57.40;;;;;;4196195;28;19991;-89
2022/07/12 09:40:41;;;;;;;;;;;21.70;58.20;;;;;;4173995;28;19908;-88
2022/07/12 09:43:02;;;;;;;;;;;21.70;58.20;;;;;;4192997;28;20514;-89
2022/07/12 09:45:23;;;;;;;;;;;21.70;57.50;;;;;;4203884;28;19912;-87
2022/07/12 09:47:44;;;;;;;;;;;21.80;58.00;;;;;;4198864;28;19948;-88
2022/07/12 09:50:07;;;;;;;;;;;21.90;58.00;;;;;;4186193;28;19916;-87
2022/07/12 09:52:28;;;;;;;;;;;22.00;57.80;;;;;;4192665;28;19916;-90
2022/07/12 09:54:50;;;;;;;;;;;22.00;58.00;;;;;;4189768;28;19915;-88
2022/07/12 09:57:20;;;;;;;;;;;22.10;58.20;;;;;;4170080;28;19939;-87
2022/07/12 09:59:41;;;;;;;;;;;22.20;57.20;;;;;;4182078;28;19916;-88
2022/07/12 10:02:05;;;;;;;;;;;22.20;57.90;;;;;;4169835;28;19913;-87
2022/07/12 10:04:28;;;;;;;;;;;22.30;57.60;;;;;;4180637;28;19909;-89
2022/07/12 10:12:47;;;;;;;;;;;22.60;58.00;;;;;;4169688;23;19913;-91
2022/07/12 10:15:16;;;;;;;;;;;22.70;58.10;;;;;;4141615;28;19957;-91
2022/07/12 10:17:41;;;;;;;;;;;22.70;57.90;;;;;;4156181;28;19913;-91
2022/07/12 10:20:23;;;;;;;;;;;22.90;57.80;;;;;;4157933;28;19923;-88
2022/07/12 10:22:44;;;;;;;;;;;23.00;57.10;;;;;;4141209;28;19910;-89
2022/07/12 10:25:25;;;;;;;;;;;23.00;56.70;;;;;;4162849;28;19959;-89
2022/07/12 10:27:48;;;;;;;;;;;23.20;57.60;;;;;;4158599;28;19996;-90
2022/07/12 10:30:14;;;;;;;;;;;23.30;56.30;;;;;;4149070;28;19909;-91
2022/07/12 10:32:35;;;;;;;;;;;23.30;56.50;;;;;;4154565;28;19913;-91
2022/07/12 10:35:10;;;;;;;;;;;23.40;56.20;;;;;;4160273;28;19936;-88
2022/07/12 10:37:54;;;;;;;;;;;23.50;55.60;;;;;;4149097;28;19914;-90
2022/07/12 10:40:44;;;;;;;;;;;23.60;55.80;;;;;;4157851;28;19917;-89
2022/07/12 10:43:05;;;;;;;;;;;23.60;55.30;;;;;;4149729;28;19917;-88
2022/07/12 10:45:38;;;;;;;;;;;23.60;55.50;;;;;;4159066;28;19909;-88
2022/07/12 10:48:01;;;;;;;;;;;23.70;55.00;;;;;;4136845;28;19916;-91
2022/07/12 10:50:40;;;;;;;;;;;23.80;55.00;;;;;;4155052;28;19957;-87
2022/07/12 10:53:23;;;;;;;;;;;23.80;55.20;;;;;;4170434;28;19917;-88
2022/07/12 10:56:03;;;;;;;;;;;23.90;54.60;;;;;;4159099;28;20012;-91
2022/07/12 10:58:30;;;;;;;;;;;23.90;54.80;;;;;;4141565;28;20366;-88
2022/07/12 11:00:51;;;;;;;;;;;24.00;53.90;;;;;;4154874;28;20274;-91
2022/07/12 11:03:15;;;;;;;;;;;24.00;54.00;;;;;;4159393;28;19916;-91
2022/07/12 11:05:36;;;;;;;;;;;24.00;54.30;;;;;;4151745;28;19953;-88
2022/07/12 11:07:57;;;;;;;;;;;24.10;52.80;;;;;;4159467;28;19909;-89
2022/07/12 11:10:18;;;;;;;;;;;24.10;53.10;;;;;;4137969;28;20330;-89
2022/07/12 11:12:39;;;;;;;;;;;24.10;53.40;;;;;;4155979;28;19935;-91
2022/07/12 11:15:00;;;;;;;;;;;24.10;53.70;;;;;;4156966;28;19909;-92
2022/07/12 11:17:33;;;;;;;;;;;24.20;53.90;;;;;;4148303;28;19908;-88
2022/07/12 11:20:11;;;;;;;;;;;24.20;54.00;;;;;;4160382;28;19909;-94
2022/07/12 11:22:32;;;;;;;;;;;24.30;54.20;;;;;;4158345;28;20632;-89
2022/07/12 11:24:54;;;;;;;;;;;24.30;52.60;;;;;;4158563;28;19932;-89
2022/07/12 11:27:15;;;;;;;;;;;24.40;53.90;;;;;;4146270;28;20681;-87
2022/07/12 11:29:36;;;;;;;;;;;24.40;54.00;;;;;;4156298;28;19920;-87
2022/07/12 11:32:03;;;;;;;;;;;24.50;54.00;;;;;;4141673;28;19945;-91
2022/07/12 11:34:25;;;;;;;;;;;24.50;52.50;;;;;;4158840;28;19916;-90
2022/07/12 11:36:48;;;;;;;;;;;24.60;53.00;;;;;;4170999;28;20617;-89
2022/07/12 11:39:12;;;;;;;;;;;24.60;53.80;;;;;;4151039;28;19927;-90
2022/07/12 11:41:32;;;;;;;;;;;24.70;53.70;;;;;;4158930;28;19971;-88
2022/07/12 11:43:53;;;;;;;;;;;24.70;53.70;;;;;;4157895;28;19944;-89
2022/07/12 11:46:15;;;;;;;;;;;24.80;52.60;;;;;;4134248;28;19913;-89
2022/07/12 11:48:36;;;;;;;;;;;24.80;53.30;;;;;;4152161;28;20104;-86
2022/07/12 11:51:00;;;;;;;;;;;24.90;51.70;;;;;;4144708;28;19917;-89
2022/07/12 11:53:23;;;;;;;;;;;25.00;53.30;;;;;;4142231;28;20277;-91
2022/07/12 11:55:50;;;;;;;;;;;25.00;50.90;;;;;;4158074;28;19924;-89
2022/07/12 11:58:12;;;;;;;;;;;25.10;52.80;;;;;;4155085;28;19916;-89
2022/07/12 12:00:32;;;;;;;;;;;25.10;52.70;;;;;;4158517;28;19952;-89
2022/07/12 12:02:53;;;;;;;;;;;25.20;52.50;;;;;;4146183;28;19916;-89
2022/07/12 12:05:17;;;;;;;;;;;25.20;53.50;;;;;;4145207;28;19956;-91
2022/07/12 12:07:39;;;;;;;;;;;25.30;52.50;;;;;;4147268;28;20293;-88
2022/07/12 12:10:10;;;;;;;;;;;25.30;51.70;;;;;;4137335;28;19917;-89
2022/07/12 12:12:38;;;;;;;;;;;25.30;51.50;;;;;;4136165;28;19921;-88
2022/07/12 12:15:08;;;;;;;;;;;25.30;50.60;;;;;;4146848;28;20005;-92
2022/07/12 12:17:29;;;;;;;;;;;25.30;51.00;;;;;;4133637;28;19957;-87
2022/07/12 12:19:53;;;;;;;;;;;25.30;50.10;;;;;;4150502;28;19932;-93
2022/07/12 12:22:27;;;;;;;;;;;25.30;49.90;;;;;;4123745;28;19972;-91
2022/07/12 12:25:00;;;;;;;;;;;25.30;50.50;;;;;;4152097;28;19979;-90
2022/07/12 12:27:24;;;;;;;;;;;25.30;50.60;;;;;;4148607;28;19917;-88
2022/07/12 12:29:54;;;;;;;;;;;25.30;50.10;;;;;;4155206;28;19909;-94
2022/07/12 12:32:18;;;;;;;;;;;25.30;50.10;;;;;;4165187;28;19964;-92
2022/07/12 12:34:39;;;;;;;;;;;25.30;49.80;;;;;;4153390;28;19916;-88
2022/07/12 12:37:31;;;;;;;;;;;25.30;50.00;;;;;;4136851;28;19916;-93
2022/07/12 12:39:52;;;;;;;;;;;25.30;49.60;;;;;;4132677;28;19909;-92
2022/07/12 12:42:23;;;;;;;;;;;25.30;49.80;;;;;;4173778;23;19924;-93
2022/07/12 12:44:43;;;;;;;;;;;25.40;50.70;;;;;;4170391;28;19924;-87
2022/07/12 12:49:50;;;;;;;;;;;25.40;51.10;;;;;;4172604;28;20392;-93
2022/07/12 12:52:25;;;;;;;;;;;25.50;50.80;;;;;;4163681;23;19983;-93
2022/07/12 12:54:57;;;;;;;;;;;25.50;49.20;;;;;;4142873;28;19913;-91
2022/07/12 12:57:21;;;;;;;;;;;25.50;49.80;;;;;;4138203;28;19992;-93
2022/07/12 12:59:50;;;;;;;;;;;25.50;49.20;;;;;;4145677;28;19913;-89
2022/07/12 13:02:23;;;;;;;;;;;;;;;;;;;;;
2022/07/12 13:04:45;;;;;;;;;;;25.60;49.10;;;;;;4160290;28;19966;-93
2022/07/12 13:07:15;;;;;;;;;;;25.50;48.60;;;;;;4141111;28;19910;-94
2022/07/12 13:09:39;;;;;;;;;;;25.50;49.00;;;;;;4143166;28;19948;-90
2022/07/12 13:12:11;;;;;;;;;;;25.50;48.50;;;;;;4138021;28;19913;-92
2022/07/12 13:14:41;;;;;;;;;;;25.50;48.90;;;;;;4140104;28;19920;-92
2022/07/12 13:17:04;;;;;;;;;;;25.50;48.50;;;;;;4137433;28;19924;-91
2022/07/12 13:19:37;;;;;;;;;;;25.50;49.30;;;;;;4142480;28;19917;-90
2022/07/12 13:22:00;;;;;;;;;;;25.50;49.30;;;;;;4140477;28;19910;-90
2022/07/12 13:24:21;;;;;;;;;;;25.40;48.40;;;;;;4139661;28;19997;-92
2022/07/12 13:26:42;;;;;;;;;;;25.40;48.20;;;;;;4137741;28;19925;-88
2022/07/12 13:29:07;;;;;;;;;;;25.30;48.20;;;;;;4154079;28;19917;-91
2022/07/12 13:31:34;;;;;;;;;;;25.30;47.20;;;;;;4144774;28;20007;-91
2022/07/12 13:33:57;;;;;;;;;;;25.30;46.80;;;;;;4159764;28;19967;-89
2022/07/12 13:36:18;;;;;;;;;;;25.30;47.10;;;;;;4139352;28;21535;-90
2022/07/12 13:38:40;;;;;;;;;;;25.20;47.60;;;;;;4150083;28;20352;-90
2022/07/12 13:41:01;;;;;;;;;;;25.20;47.20;;;;;;4151571;28;19909;-91
2022/07/12 13:43:21;;;;;;;;;;;25.10;47.20;;;;;;4141701;28;19952;-91
2022/07/12 13:45:44;;;;;;;;;;;25.10;47.80;;;;;;4145131;28;20390;-88
2022/07/12 13:48:05;;;;;;;;;;;25.10;48.00;;;;;;4143332;28;19916;-91
2022/07/12 13:50:26;;;;;;;;;;;25.10;48.10;;;;;;4141110;28;19917;-89
2022/07/12 13:52:47;;;;;;;;;;;25.00;49.20;;;;;;4153108;28;20020;-90
2022/07/12 13:55:08;;;;;;;;;;;25.00;48.30;;;;;;4151567;28;19909;-91
2022/07/12 13:57:29;;;;;;;;;;;24.90;48.20;;;;;;4155708;28;19917;-91
2022/07/12 13:59:51;;;;;;;;;;;24.90;48.10;;;;;;4141297;28;20298;-88
2022/07/12 14:02:23;;;;;;;;;;;24.90;48.50;;;;;;4163523;28;19916;-93
2022/07/12 14:04:50;;;;;;;;;;;24.90;48.60;;;;;;4149043;28;19917;-94
2022/07/12 14:07:11;;;;;;;;;;;24.90;48.90;;;;;;4154867;28;19909;-88
2022/07/12 14:09:35;;;;;;;;;;;24.80;48.80;;;;;;4157325;28;20001;-94
2022/07/12 14:11:56;;;;;;;;;;;24.80;48.90;;;;;;4159438;28;20016;-94
2022/07/12 14:14:51;;;;;;;;;;;24.80;49.30;;;;;;4145263;28;19905;-92